createdAt,value
2022-10-05T08:56:02.366Z,86.517
2022-10-05T09:00:01.996Z,86.517
2022-10-05T09:07:01.643Z,86.333
2022-10-05T09:14:01.458Z,86.333
2022-10-05T09:21:01.375Z,86.333
2022-10-05T09:28:01.580Z,86.166
2022-10-05T09:35:01.655Z,85.922
2022-10-05T09:42:02.052Z,85.922
2022-10-05T09:49:02.272Z,85.825
2022-10-05T09:56:01.915Z,85.722
2022-10-05T10:00:02.744Z,85.722
2022-10-05T10:07:02.022Z,85.496
2022-10-05T10:14:02.160Z,85.432
2022-10-05T10:21:01.795Z,85.432
2022-10-05T10:28:01.396Z,85.432
2022-10-05T10:35:01.931Z,85.302
2022-10-05T10:42:01.541Z,85.101
2022-10-05T10:49:01.855Z,85.101
2022-10-05T10:56:02.098Z,85.284
2022-10-05T11:00:01.658Z,85.284
2022-10-05T11:07:01.832Z,85.284
2022-10-05T11:14:02.161Z,85.327
2022-10-05T11:21:01.763Z,84.804
2022-10-05T11:28:01.397Z,84.804
2022-10-05T11:35:02.683Z,84.273
2022-10-05T11:42:02.239Z,83.752
2022-10-05T11:49:01.699Z,83.752
2022-10-05T11:56:01.978Z,83.175
2022-10-05T12:00:01.595Z,82.97
2022-10-05T12:07:02.156Z,82.97
2022-10-05T12:14:01.356Z,82.881
2022-10-05T12:21:01.497Z,82.881
2022-10-05T12:28:01.925Z,82.881
2022-10-05T12:35:02.154Z,82.243
2022-10-05T12:42:01.620Z,82.268
2022-10-05T12:49:01.711Z,81.799
2022-10-05T12:56:01.766Z,81.799
2022-10-05T13:00:02.375Z,81.242
2022-10-05T13:07:01.974Z,80.453
2022-10-05T13:14:01.686Z,80.453
2022-10-05T13:21:02.275Z,80.453
2022-10-05T13:28:02.216Z,79.833
2022-10-05T13:35:01.837Z,79.833
2022-10-05T13:42:02.326Z,79.406
2022-10-05T13:49:01.800Z,79.255
2022-10-05T13:56:01.678Z,78.808
2022-10-05T14:00:02.279Z,78.808
2022-10-05T14:07:02.012Z,78.406
2022-10-05T14:14:02.219Z,78.406
2022-10-05T14:21:01.585Z,78.406
2022-10-05T14:28:01.707Z,78.389
2022-10-05T14:35:02.095Z,78.299
2022-10-05T14:42:01.866Z,78.299
2022-10-05T14:49:02.320Z,78.375
2022-10-05T14:56:01.495Z,78.116
2022-10-05T15:00:02.158Z,78.116
2022-10-05T15:07:04.106Z,77.953
2022-10-05T15:14:01.564Z,77.9
2022-10-05T15:21:02.042Z,77.9
2022-10-05T15:28:01.397Z,77.964
2022-10-05T15:35:02.406Z,76.515
2022-10-05T15:42:01.874Z,76.543
2022-10-05T15:49:01.603Z,76.543
2022-10-05T15:56:01.837Z,76.543
2022-10-05T16:00:02.483Z,76.543
2022-10-05T16:07:01.713Z,76.406
2022-10-05T16:14:01.587Z,75.79
2022-10-05T16:21:02.301Z,75.506
2022-10-05T16:28:05.269Z,75.506
2022-10-05T16:35:02.027Z,75.447
2022-10-05T16:42:01.748Z,75.459
2022-10-05T16:49:01.556Z,75.459
2022-10-05T16:56:01.834Z,75.505
2022-10-05T17:00:02.472Z,75.38
2022-10-05T17:07:01.403Z,75.38
2022-10-05T17:14:02.189Z,75.123
2022-10-05T17:21:02.340Z,74.981
2022-10-05T17:28:02.250Z,74.138
2022-10-05T17:35:02.395Z,74.138
2022-10-05T17:42:01.880Z,74.138
2022-10-05T17:49:01.868Z,74.197
2022-10-05T17:56:01.793Z,74.197
2022-10-05T18:00:02.499Z,73.846
2022-10-05T18:07:02.259Z,74.008
2022-10-05T18:14:01.804Z,74.008
2022-10-05T18:21:01.931Z,74.011
2022-10-05T18:28:01.982Z,74.164
2022-10-05T18:35:02.459Z,74.164
2022-10-05T18:42:02.100Z,74.359
2022-10-05T18:49:01.707Z,74.516
2022-10-05T18:56:01.888Z,74.808
2022-10-05T19:00:02.496Z,74.808
2022-10-05T19:07:01.760Z,75.033
2022-10-05T19:14:01.954Z,75.033
2022-10-05T19:21:01.759Z,75.194
2022-10-05T19:28:02.179Z,75.194
2022-10-05T19:35:02.463Z,75.419
2022-10-05T19:42:01.531Z,75.419
2022-10-05T19:49:01.954Z,75.377
2022-10-05T19:56:01.808Z,75.377
2022-10-05T20:00:02.458Z,75.377
2022-10-05T20:07:01.667Z,75.079
2022-10-05T20:14:02.228Z,75.065
2022-10-05T20:21:02.290Z,75.065
2022-10-05T20:28:02.232Z,75.21
2022-10-05T20:35:01.900Z,75.355
2022-10-05T20:42:01.403Z,75.375
2022-10-05T20:49:02.098Z,75.375
2022-10-05T20:56:02.087Z,75.332
2022-10-05T21:00:01.718Z,75.332
2022-10-05T21:07:02.087Z,75.55
2022-10-05T21:14:05.581Z,75.551
2022-10-05T21:21:02.440Z,75.556
2022-10-05T21:28:02.301Z,75.556
2022-10-05T21:35:01.632Z,75.651
2022-10-05T21:42:02.062Z,76.111
2022-10-05T21:49:01.912Z,76.111
2022-10-05T21:56:03.081Z,76.111
2022-10-05T22:00:01.807Z,76.111
2022-10-05T22:07:02.356Z,76.111
2022-10-05T22:14:01.712Z,79.266
2022-10-05T22:21:01.369Z,79.111
2022-10-05T22:28:01.637Z,78.868
2022-10-05T22:35:02.145Z,78.868
2022-10-05T22:42:02.264Z,79.163
2022-10-05T22:49:01.649Z,79.367
2022-10-05T22:56:01.460Z,79.367
2022-10-05T23:00:02.082Z,79.367
2022-10-05T23:07:01.539Z,79.804
2022-10-05T23:14:02.158Z,79.804
2022-10-05T23:21:01.710Z,79.804
2022-10-05T23:28:01.862Z,78.384
2022-10-05T23:35:01.611Z,78.876
2022-10-05T23:42:01.388Z,78.876
2022-10-05T23:49:01.722Z,79.253
2022-10-05T23:56:01.405Z,79.34
